createdAt,value
2023-04-15T00:00:51.393Z,100211.19
2023-04-15T00:01:55.269Z,100205.88
2023-04-15T00:02:58.320Z,100206.13
2023-04-15T00:04:03.793Z,100213.72
2023-04-15T00:05:07.379Z,100216.25
2023-04-15T00:06:11.158Z,100218.34
2023-04-15T00:07:14.884Z,100201.34
2023-04-15T00:08:18.762Z,100224.91
2023-04-15T00:09:20.960Z,100222.50
2023-04-15T00:10:24.663Z,100214.47
2023-04-15T00:11:27.222Z,100221.47
2023-04-15T00:12:31.031Z,100225.63
2023-04-15T00:13:34.314Z,100190.66
2023-04-15T00:14:38.291Z,100229.06
2023-04-15T00:15:41.221Z,100223.09
2023-04-15T00:16:45.048Z,100218.03
2023-04-15T00:17:48.079Z,100212.84
2023-04-15T00:18:52.049Z,100212.69
2023-04-15T00:19:56.104Z,100235.78
2023-04-15T00:20:59.806Z,100229.81
2023-04-15T00:22:02.342Z,100225.50
2023-04-15T00:23:05.903Z,100238.00
2023-04-15T00:24:08.661Z,100225.34
2023-04-15T00:25:12.250Z,100232.81
2023-04-15T00:26:14.926Z,100229.38
2023-04-15T00:27:18.474Z,100240.41
2023-04-15T00:28:21.237Z,100238.63
2023-04-15T00:29:24.989Z,100240.25
2023-04-15T00:30:27.171Z,100240.13
2023-04-15T00:31:31.633Z,100242.50
2023-04-15T00:32:34.499Z,100221.09
2023-04-15T00:33:38.141Z,100232.09
2023-04-15T00:34:40.856Z,100245.03
2023-04-15T00:35:45.954Z,100244.00
2023-04-15T00:36:48.483Z,100234.19
2023-04-15T00:37:52.727Z,100215.44
2023-04-15T00:38:55.275Z,100247.31
2023-04-15T00:39:58.975Z,100231.53
2023-04-15T00:41:01.805Z,100252.38
2023-04-15T00:42:06.521Z,100240.88
2023-04-15T00:43:09.197Z,100245.22
2023-04-15T00:44:12.851Z,100251.16
2023-04-15T00:45:15.885Z,100259.66
2023-04-15T00:46:22.193Z,100252.94
2023-04-15T00:47:25.306Z,100244.19
2023-04-15T00:48:30.089Z,100251.00
2023-04-15T00:49:32.672Z,100261.44
2023-04-15T00:50:36.472Z,100267.25
2023-04-15T00:51:40.074Z,100264.72
2023-04-15T00:52:43.959Z,100262.19
2023-04-15T00:53:46.611Z,100263.53
2023-04-15T00:54:51.432Z,100262.81
2023-04-15T00:55:54.908Z,100266.19
2023-04-15T00:56:59.095Z,100272.31
2023-04-15T00:58:02.130Z,100261.91
2023-04-15T00:59:06.454Z,100266.06
2023-04-15T01:00:11.540Z,100257.56
2023-04-15T01:01:15.341Z,100260.28
2023-04-15T01:02:18.310Z,100264.13
2023-04-15T01:03:22.282Z,100277.53
2023-04-15T01:04:25.664Z,100278.44
2023-04-15T01:05:30.482Z,100280.66
2023-04-15T01:06:33.822Z,100280.66
2023-04-15T01:07:38.853Z,100274.72
2023-04-15T01:08:41.799Z,100271.16
2023-04-15T01:09:45.901Z,100265.34
2023-04-15T01:10:48.989Z,100280.38
2023-04-15T01:11:52.675Z,100278.00
2023-04-15T01:12:55.309Z,100279.78
2023-04-15T01:14:00.716Z,100288.25
2023-04-15T01:15:03.805Z,100285.00
2023-04-15T01:16:08.934Z,100287.38
2023-04-15T01:17:11.595Z,100284.22
2023-04-15T01:18:16.018Z,100289.91
2023-04-15T01:19:18.930Z,100274.16
2023-04-15T01:20:23.756Z,100273.53
2023-04-15T01:21:27.159Z,100279.78
2023-04-15T01:22:30.955Z,100279.47
2023-04-15T01:23:37.277Z,100281.56
2023-04-15T01:24:40.900Z,100263.13
2023-04-15T01:25:45.982Z,100291.41
2023-04-15T01:26:50.815Z,100288.72
2023-04-15T01:27:53.596Z,100287.84
2023-04-15T01:28:57.833Z,100297.06
2023-04-15T01:30:00.455Z,100292.91
2023-04-15T01:31:09.105Z,100300.50
2023-04-15T01:32:12.232Z,100299.47
2023-04-15T01:33:34.213Z,100296.16
2023-04-15T01:34:56.802Z,100292.44
2023-04-15T01:36:18.971Z,100300.94
2023-04-15T01:37:21.927Z,100299.75
2023-04-15T01:38:25.784Z,100305.84
2023-04-15T01:39:27.946Z,100298.25
2023-04-15T01:40:31.560Z,100278.75
2023-04-15T01:41:36.865Z,100291.28
2023-04-15T01:42:41.869Z,100297.25
2023-04-15T01:43:46.073Z,100304.66
2023-04-15T01:44:51.323Z,100303.16
2023-04-15T01:45:55.239Z,100304.06
2023-04-15T01:47:00.269Z,100304.97
2023-04-15T01:48:04.252Z,100303.16
2023-04-15T01:49:08.673Z,100301.41
2023-04-15T01:50:12.436Z,100320.88
2023-04-15T01:51:17.504Z,100311.66
2023-04-15T01:52:21.393Z,100314.94
2023-04-15T01:53:26.024Z,100314.34
2023-04-15T01:54:29.780Z,100310.94
2023-04-15T01:55:35.121Z,100318.81
2023-04-15T01:56:40.348Z,100321.19
2023-04-15T02:14:13.024Z,100321.63
2023-04-15T02:15:17.056Z,100322.81
2023-04-15T02:16:22.190Z,100332.31
2023-04-15T02:17:26.294Z,100318.94
2023-04-15T02:18:31.271Z,100329.81
2023-04-15T02:19:35.086Z,100335.63
2023-04-15T02:20:40.296Z,100341.84
2023-04-15T02:21:44.092Z,100344.38
2023-04-15T02:22:49.193Z,100338.72
2023-04-15T02:23:54.245Z,100339.19
2023-04-15T02:24:59.195Z,100339.78
2023-04-15T02:26:02.993Z,100351.84
2023-04-15T02:27:07.906Z,100339.91
2023-04-15T02:28:12.769Z,100332.19
2023-04-15T02:29:18.101Z,100353.28
2023-04-15T02:30:24.235Z,100358.81
2023-04-15T02:31:28.267Z,100347.91
2023-04-15T02:32:33.208Z,100347.47
2023-04-15T02:33:38.008Z,100324.06
2023-04-15T02:34:43.186Z,100348.06
2023-04-15T02:35:47.628Z,100356.53
2023-04-15T02:36:55.184Z,100351.47
2023-04-15T02:37:58.985Z,100355.31
2023-04-15T02:39:04.442Z,100355.31
2023-04-15T02:40:10.560Z,100361.88
2023-04-15T02:41:15.463Z,100356.22
2023-04-15T02:42:19.320Z,100343.53
2023-04-15T02:43:23.753Z,100370.34
2023-04-15T02:44:29.288Z,100363.66
2023-04-15T02:45:34.412Z,100355.28
2023-04-15T02:46:38.452Z,100368.41
2023-04-15T02:47:43.517Z,100371.50
2023-04-15T02:48:47.325Z,100352.13
2023-04-15T02:49:52.207Z,100361.25
2023-04-15T02:51:11.985Z,100349.59
2023-04-15T02:52:16.855Z,100369.28
2023-04-15T02:53:20.987Z,100372.88
2023-04-15T02:54:26.312Z,100370.88
2023-04-15T02:55:30.205Z,100376.84
2023-04-15T02:56:34.777Z,100378.03
2023-04-15T02:57:39.466Z,100368.94
2023-04-15T02:58:46.465Z,100379.22
2023-04-15T02:59:51.683Z,100372.66
2023-04-15T03:00:56.694Z,100379.78
2023-04-15T03:02:01.463Z,100392.75
2023-04-15T03:03:08.120Z,100351.78
2023-04-15T03:04:12.038Z,100376.91
2023-04-15T03:05:17.014Z,100384.69
2023-04-15T03:06:20.885Z,100395.84
2023-04-15T03:07:25.599Z,100380.81
2023-04-15T03:08:29.507Z,100363.69
2023-04-15T03:09:34.025Z,100390.34
2023-04-15T03:10:37.808Z,100395.81
2023-04-15T03:11:42.587Z,100405.50
2023-04-15T03:12:46.452Z,100394.75
2023-04-15T03:13:50.966Z,100399.50
2023-04-15T03:14:56.537Z,100407.53
2023-04-15T03:16:01.705Z,100400.06
2023-04-15T03:17:05.555Z,100410.50
2023-04-15T03:18:10.592Z,100400.63
2023-04-15T03:19:14.452Z,100407.94
2023-04-15T03:20:19.058Z,100419.13
2023-04-15T03:21:24.123Z,100404.81
2023-04-15T03:22:29.002Z,100418.25
2023-04-15T03:23:33.110Z,100406.44
2023-04-15T03:24:38.084Z,100392.16
2023-04-15T03:25:42.251Z,100402.72
2023-04-15T03:26:47.601Z,100414.50
2023-04-15T03:27:51.463Z,100403.84
2023-04-15T03:28:56.258Z,100406.56
2023-04-15T03:30:01.475Z,100422.06
2023-04-15T03:31:06.538Z,100418.22
2023-04-15T03:32:10.314Z,100400.59
2023-04-15T03:33:15.102Z,100410.28
2023-04-15T03:34:19.044Z,100394.88
2023-04-15T03:35:23.889Z,100406.50
2023-04-15T03:36:31.579Z,100409.78
2023-04-15T03:37:35.317Z,100412.13
2023-04-15T03:38:40.255Z,100411.53
2023-04-15T03:39:44.030Z,100409.13
2023-04-15T03:40:48.974Z,100415.50
2023-04-15T03:41:52.747Z,100412.50
2023-04-15T03:42:57.632Z,100403.16
2023-04-15T03:44:01.466Z,100412.03
2023-04-15T03:45:08.249Z,100420.66
2023-04-15T03:46:12.165Z,100425.63
2023-04-15T03:47:17.283Z,100418.91
2023-04-15T03:48:21.318Z,100416.13
2023-04-15T03:49:26.261Z,100403.31
2023-04-15T03:50:29.952Z,100409.81
2023-04-15T03:51:35.028Z,100419.25
2023-04-15T03:52:38.884Z,100417.03
2023-04-15T03:53:43.834Z,100419.31
2023-04-15T03:54:47.979Z,100417.53
2023-04-15T03:55:52.776Z,100414.38
2023-04-15T03:56:57.099Z,100420.47
2023-04-15T03:58:01.992Z,100430.75
2023-04-15T03:59:05.707Z,100424.59
2023-04-15T04:00:12.738Z,100412.53
2023-04-15T04:01:16.921Z,100427.44
2023-04-15T04:02:21.913Z,100416.69
2023-04-15T04:04:31.219Z,100422.53
2023-04-15T04:05:39.146Z,100428.38
2023-04-15T04:06:42.972Z,100429.88
2023-04-15T04:07:47.634Z,100427.59
2023-04-15T04:08:51.388Z,100415.81
2023-04-15T04:09:56.356Z,100417.59
2023-04-15T04:11:00.583Z,100425.44
2023-04-15T04:12:05.531Z,100403.59
2023-04-15T04:13:09.367Z,100433.94
2023-04-15T04:14:14.004Z,100434.09
2023-04-15T04:15:19.349Z,100430.03
2023-04-15T04:16:24.433Z,100429.00
2023-04-15T04:17:28.330Z,100437.53
2023-04-15T04:18:33.468Z,100436.34
2023-04-15T04:19:37.367Z,100436.75
2023-04-15T04:20:42.065Z,100429.41
2023-04-15T04:21:45.859Z,100445.28
2023-04-15T04:22:50.390Z,100451.94
2023-04-15T04:23:54.305Z,100432.78
2023-04-15T04:24:59.785Z,100450.16
2023-04-15T04:26:03.491Z,100426.41
2023-04-15T04:27:08.626Z,100430.25
2023-04-15T04:28:12.689Z,100438.41
2023-04-15T04:29:17.502Z,100434.69
2023-04-15T04:30:23.789Z,100443.22
2023-04-15T04:31:27.751Z,100430.91
2023-04-15T04:32:32.712Z,100450.78
2023-04-15T04:33:36.567Z,100434.41
2023-04-15T04:34:41.016Z,100447.25
2023-04-15T04:35:44.825Z,100439.91
2023-04-15T04:36:49.278Z,100442.97
2023-04-15T04:37:54.015Z,100442.34
2023-04-15T04:38:58.902Z,100460.56
2023-04-15T04:40:02.703Z,100456.50
2023-04-15T04:41:07.759Z,100448.25
2023-04-15T04:42:11.850Z,100446.88
2023-04-15T04:43:16.838Z,100459.88
2023-04-15T04:44:20.533Z,100456.72
2023-04-15T04:45:27.576Z,100453.38
2023-04-15T04:46:31.423Z,100453.81
2023-04-15T04:47:35.940Z,100468.56
2023-04-15T04:48:40.866Z,100468.84
2023-04-15T04:49:44.593Z,100437.22
2023-04-15T04:50:49.629Z,100448.13
2023-04-15T04:51:53.854Z,100457.19
2023-04-15T04:52:58.803Z,100459.88
2023-04-15T04:54:03.697Z,100473.75
2023-04-15T04:55:09.874Z,100468.03
2023-04-15T04:56:14.618Z,100463.22
2023-04-15T04:57:18.474Z,100464.13
2023-04-15T04:58:23.356Z,100472.13
2023-04-15T04:59:27.186Z,100466.41
2023-04-15T05:00:33.218Z,100460.22
2023-04-15T05:01:37.441Z,100475.06
2023-04-15T05:02:44.408Z,100473.06
2023-04-15T05:03:48.329Z,100471.78
2023-04-15T05:04:54.638Z,100468.34
2023-04-15T05:05:58.447Z,100460.88
2023-04-15T05:07:03.015Z,100468.88
2023-04-15T05:08:07.340Z,100476.16
2023-04-15T05:09:12.076Z,100461.88
2023-04-15T05:10:17.792Z,100472.97
2023-04-15T05:11:22.902Z,100470.44
2023-04-15T05:12:26.882Z,100458.69
2023-04-15T05:13:31.911Z,100445.50
2023-04-15T05:14:35.945Z,100449.06
2023-04-15T05:15:43.566Z,100465.97
2023-04-15T05:16:47.411Z,100466.25
2023-04-15T05:17:51.982Z,100469.06
2023-04-15T05:18:55.839Z,100466.50
2023-04-15T05:20:00.392Z,100459.25
2023-04-15T05:21:04.248Z,100449.84
2023-04-15T05:22:09.650Z,100456.84
2023-04-15T05:23:14.464Z,100465.03
2023-04-15T05:24:18.566Z,100475.72
2023-04-15T05:25:23.609Z,100471.75
2023-04-15T05:26:27.823Z,100465.28
2023-04-15T05:27:32.650Z,100473.44
2023-04-15T05:28:36.527Z,100460.97
2023-04-15T05:29:41.253Z,100470.63
2023-04-15T05:30:46.696Z,100481.22
2023-04-15T05:31:51.583Z,100470.88
2023-04-15T05:32:55.413Z,100462.63
2023-04-15T05:33:59.845Z,100473.31
2023-04-15T05:35:03.605Z,100471.13
2023-04-15T05:36:08.448Z,100482.22
2023-04-15T05:37:12.219Z,100472.28
2023-04-15T05:38:16.720Z,100481.47
2023-04-15T05:39:20.422Z,100487.47
2023-04-15T05:40:25.172Z,100479.31
2023-04-15T05:41:28.910Z,100473.72
2023-04-15T05:42:33.465Z,100487.84
2023-04-15T05:43:37.295Z,100481.59
2023-04-15T05:44:41.907Z,100480.94
2023-04-15T05:45:47.179Z,100490.41
2023-04-15T05:46:52.260Z,100480.59
2023-04-15T05:47:57.357Z,100490.00
2023-04-15T05:49:01.626Z,100493.59
2023-04-15T05:50:07.716Z,100489.59
2023-04-15T05:51:11.724Z,100485.41
2023-04-15T05:52:17.031Z,100498.53
2023-04-15T05:53:21.124Z,100494.56
2023-04-15T05:54:28.034Z,100488.97
2023-04-15T05:55:32.275Z,100493.41
2023-04-15T05:56:37.205Z,100489.69
2023-04-15T05:57:42.098Z,100496.31
2023-04-15T05:58:45.851Z,100496.97
2023-04-15T05:59:51.853Z,100499.88
2023-04-15T06:00:57.343Z,100491.59
2023-04-15T06:02:02.260Z,100450.69
2023-04-15T06:03:06.771Z,100487.00
2023-04-15T06:04:11.958Z,100498.38
2023-04-15T06:05:15.911Z,100495.28
2023-04-15T06:06:20.644Z,100497.34
2023-04-15T06:07:25.830Z,100477.59
2023-04-15T06:08:29.903Z,100515.84
2023-04-15T06:09:34.991Z,100500.81
2023-04-15T06:10:38.862Z,100479.78
2023-04-15T06:11:43.731Z,100482.31
2023-04-15T06:12:48.665Z,100489.44
2023-04-15T06:13:52.615Z,100495.19
2023-04-15T06:14:58.946Z,100522.88
2023-04-15T06:16:05.677Z,100513.31
2023-04-15T06:17:10.981Z,100507.56
2023-04-15T06:18:14.660Z,100499.28
2023-04-15T06:19:20.060Z,100508.19
2023-04-15T06:20:24.240Z,100511.91
2023-04-15T06:21:29.062Z,100503.72
2023-04-15T06:22:32.919Z,100511.88
2023-04-15T06:23:38.016Z,100499.13
2023-04-15T06:39:09.108Z,100521.25
2023-04-15T06:40:13.522Z,100515.25
2023-04-15T06:43:16.014Z,100515.88
2023-04-15T06:44:19.965Z,100501.31
2023-04-15T06:45:24.917Z,100508.66
2023-04-15T06:46:29.125Z,100501.38
2023-04-15T06:47:35.435Z,100513.91
2023-04-15T06:48:39.288Z,100517.22
2023-04-15T06:49:45.458Z,100510.56
2023-04-15T06:50:51.109Z,100499.34
2023-04-15T06:51:54.947Z,100502.44
2023-04-15T06:52:59.630Z,100500.81
2023-04-15T06:54:06.224Z,100522.38
2023-04-15T06:55:11.836Z,100516.50
2023-04-15T06:56:16.105Z,100520.84
2023-04-15T06:57:20.926Z,100528.63
2023-04-15T06:58:24.768Z,100495.72
2023-04-15T06:59:29.695Z,100509.97
2023-04-15T07:00:34.521Z,100515.06
2023-04-15T07:01:39.362Z,100514.41
2023-04-15T07:02:45.282Z,100494.16
2023-04-15T07:03:50.449Z,100521.16
2023-04-15T07:04:54.679Z,100513.84
2023-04-15T07:06:00.171Z,100514.59
2023-04-15T07:07:03.905Z,100541.44
2023-04-15T07:08:08.758Z,100502.31
2023-04-15T07:09:12.576Z,100513.09
2023-04-15T07:10:17.368Z,100516.53
2023-04-15T07:11:21.528Z,100506.66
2023-04-15T07:12:26.463Z,100516.31
2023-04-15T07:13:32.499Z,100516.81
2023-04-15T07:14:38.048Z,100515.25
2023-04-15T07:15:41.782Z,100515.63
2023-04-15T07:16:46.713Z,100514.22
2023-04-15T07:17:52.034Z,100492.38
2023-04-15T07:18:57.462Z,100497.38
2023-04-15T07:20:01.323Z,100498.97
2023-04-15T07:21:06.660Z,100510.44
2023-04-15T07:22:10.881Z,100499.50
2023-04-15T07:23:16.557Z,100504.56
2023-04-15T07:24:20.980Z,100513.56
2023-04-15T07:25:26.031Z,100506.94
2023-04-15T07:26:31.127Z,100500.56
2023-04-15T07:27:35.029Z,100506.28
2023-04-15T07:28:39.922Z,100511.16
2023-04-15T07:29:43.638Z,100517.03
2023-04-15T07:30:48.453Z,100498.38
2023-04-15T07:31:52.160Z,100495.16
2023-04-15T07:32:59.205Z,100508.19
2023-04-15T07:34:03.065Z,100484.94
2023-04-15T07:35:08.623Z,100492.88
2023-04-15T07:36:13.497Z,100492.06
2023-04-15T07:37:17.707Z,100502.13
2023-04-15T07:38:22.750Z,100503.25
2023-04-15T07:39:26.805Z,100513.81
2023-04-15T07:40:31.785Z,100504.50
2023-04-15T07:41:35.641Z,100492.25
2023-04-15T07:42:41.366Z,100502.94
2023-04-15T07:43:45.621Z,100493.59
2023-04-15T07:44:50.751Z,100480.16
2023-04-15T07:45:55.613Z,100483.50
2023-04-15T07:47:04.770Z,100506.28
2023-04-15T07:48:10.058Z,100508.09
2023-04-15T07:49:15.275Z,100482.66
2023-04-15T07:50:20.394Z,100480.84
2023-04-15T07:51:24.352Z,100502.75
2023-04-15T07:52:29.222Z,100499.41
2023-04-15T07:53:33.526Z,100485.25
2023-04-15T07:54:38.870Z,100484.59
2023-04-15T07:55:43.823Z,100512.25
2023-04-15T07:56:47.669Z,100483.78
2023-04-15T07:57:52.514Z,100487.34
2023-04-15T07:58:56.297Z,100476.78
2023-04-15T08:00:01.293Z,100464.25
2023-04-15T08:01:05.809Z,100486.34
2023-04-15T08:02:12.469Z,100489.72
2023-04-15T08:03:19.047Z,100484.97
2023-04-15T08:04:23.295Z,100491.56
2023-04-15T08:05:28.346Z,100468.75
2023-04-15T08:06:32.205Z,100456.97
2023-04-15T08:07:37.620Z,100495.66
2023-04-15T08:08:41.848Z,100488.22
2023-04-15T08:09:47.134Z,100463.09
2023-04-15T08:10:52.678Z,100479.44
2023-04-15T08:11:58.151Z,100486.44
2023-04-15T08:13:01.892Z,100477.47
2023-04-15T08:14:06.465Z,100491.47
2023-04-15T08:15:13.340Z,100479.69
2023-04-15T08:16:23.388Z,100487.03
2023-04-15T08:17:27.416Z,100471.91
2023-04-15T08:18:33.782Z,100483.94
2023-04-15T08:19:38.719Z,100461.66
2023-04-15T08:20:42.652Z,100484.63
2023-04-15T08:21:47.773Z,100487.50
2023-04-15T08:22:52.985Z,100472.81
2023-04-15T08:23:57.969Z,100475.81
2023-04-15T08:25:01.942Z,100478.38
2023-04-15T08:26:07.077Z,100476.81
2023-04-15T08:27:12.559Z,100456.44
2023-04-15T08:28:17.574Z,100467.34
2023-04-15T08:29:22.481Z,100463.88
2023-04-15T08:30:27.279Z,100472.25
2023-04-15T08:31:31.126Z,100459.88
2023-04-15T08:32:36.483Z,100477.94
2023-04-15T08:33:41.671Z,100478.34
2023-04-15T08:34:46.620Z,100468.34
2023-04-15T08:35:50.374Z,100469.81
2023-04-15T08:36:54.948Z,100479.59
2023-04-15T08:37:58.861Z,100475.94
2023-04-15T08:39:05.263Z,100473.91
2023-04-15T08:40:11.303Z,100455.75
2023-04-15T08:41:22.840Z,100465.38
2023-04-15T08:42:32.874Z,100462.91
2023-04-15T08:43:39.154Z,100474.59
2023-04-15T08:44:44.896Z,100477.38
2023-04-15T08:45:51.953Z,100443.84
2023-04-15T08:46:58.620Z,100457.78
2023-04-15T08:48:05.607Z,100461.25
2023-04-15T08:49:14.084Z,100470.44
2023-04-15T08:50:19.243Z,100460.44
2023-04-15T08:51:27.432Z,100476.47
2023-04-15T08:52:32.470Z,100446.72
2023-04-15T08:53:37.673Z,100452.53
2023-04-15T08:54:42.443Z,100418.56
2023-04-15T08:55:48.374Z,100457.75
2023-04-15T08:56:54.755Z,100477.69
2023-04-15T08:57:58.783Z,100459.97
2023-04-15T08:59:04.181Z,100470.53
2023-04-15T09:00:09.658Z,100451.09
2023-04-15T09:01:15.552Z,100449.50
2023-04-15T09:02:19.842Z,100458.09
2023-04-15T09:03:25.218Z,100452.06
2023-04-15T09:04:31.955Z,100462.63
2023-04-15T09:05:36.859Z,100448.28
2023-04-15T09:06:42.237Z,100464.88
2023-04-15T09:07:47.125Z,100461.63
2023-04-15T09:08:53.144Z,100462.94
2023-04-15T09:09:57.070Z,100465.94
2023-04-15T09:11:02.347Z,100458.25
2023-04-15T09:12:06.407Z,100464.78
2023-04-15T09:13:11.224Z,100434.50
2023-04-15T09:14:16.108Z,100443.72
2023-04-15T09:15:20.138Z,100454.19
2023-04-15T09:16:25.192Z,100449.41
2023-04-15T09:17:30.149Z,100459.41
2023-04-15T09:18:36.603Z,100462.28
2023-04-15T09:19:41.926Z,100457.72
2023-04-15T09:20:46.975Z,100459.69
2023-04-15T09:21:51.857Z,100464.34
2023-04-15T09:22:56.635Z,100440.94
2023-04-15T09:24:02.124Z,100454.22
2023-04-15T09:25:28.056Z,100451.53
2023-04-15T09:26:34.151Z,100430.34
2023-04-15T09:27:39.131Z,100454.44
2023-04-15T09:28:43.194Z,100434.66
2023-04-15T09:29:51.984Z,100447.97
2023-04-15T09:30:58.670Z,100471.53
2023-04-15T09:32:14.965Z,100444.78
2023-04-15T09:33:18.424Z,100464.97
2023-04-15T09:34:23.526Z,100474.50
2023-04-15T09:35:29.271Z,100447.53
2023-04-15T09:36:53.132Z,100468.50
2023-04-15T09:38:05.418Z,100439.84
2023-04-15T09:39:10.454Z,100441.25
2023-04-15T09:40:14.522Z,100443.47
2023-04-15T09:41:20.109Z,100444.69
2023-04-15T09:42:27.057Z,100468.88
2023-04-15T09:43:42.408Z,100439.78
2023-04-15T09:44:46.850Z,100432.84
2023-04-15T09:45:53.230Z,100448.53
2023-04-15T09:46:56.979Z,100439.88
2023-04-15T09:48:02.480Z,100450.25
2023-04-15T09:49:09.318Z,100429.13
2023-04-15T09:50:15.230Z,100422.66
2023-04-15T09:51:36.713Z,100421.28
2023-04-15T09:52:43.413Z,100435.50
2023-04-15T09:53:48.332Z,100463.63
2023-04-15T09:54:55.166Z,100429.59
2023-04-15T09:56:02.844Z,100422.31
2023-04-15T09:57:07.546Z,100415.81
2023-04-15T09:58:20.277Z,100426.38
2023-04-15T09:59:25.423Z,100416.25
2023-04-15T10:00:32.433Z,100424.22
2023-04-15T10:01:36.995Z,100433.31
2023-04-15T10:02:43.418Z,100426.13
2023-04-15T10:03:48.930Z,100432.84
2023-04-15T10:04:53.941Z,100436.03
2023-04-15T10:06:01.475Z,100433.06
2023-04-15T10:07:08.385Z,100436.25
2023-04-15T10:08:14.139Z,100436.72
2023-04-15T10:09:19.604Z,100450.38
2023-04-15T10:10:23.321Z,100439.22
2023-04-15T10:11:31.781Z,100423.50
2023-04-15T10:12:40.029Z,100434.28
2023-04-15T10:13:45.499Z,100425.81
2023-04-15T10:14:58.233Z,100403.16
2023-04-15T10:16:07.961Z,100423.59
2023-04-15T10:17:14.063Z,100418.47
2023-04-15T10:18:21.354Z,100418.59
2023-04-15T10:19:32.591Z,100404.16
2023-04-15T10:20:38.555Z,100417.00
2023-04-15T10:21:42.813Z,100430.94
2023-04-15T10:22:49.574Z,100432.59
2023-04-15T10:23:54.108Z,100416.50
2023-04-15T10:25:00.034Z,100411.84
2023-04-15T10:26:06.507Z,100420.47
2023-04-15T10:27:11.528Z,100420.88
2023-04-15T10:28:17.754Z,100445.94
2023-04-15T10:29:21.568Z,100435.41
2023-04-15T10:30:26.811Z,100407.69
2023-04-15T10:31:32.730Z,100409.69
2023-04-15T10:32:38.010Z,100429.25
2023-04-15T10:33:44.345Z,100436.56
2023-04-15T10:34:49.809Z,100428.84
2023-04-15T10:35:58.342Z,100448.09
2023-04-15T10:37:04.078Z,100391.97
2023-04-15T10:38:38.035Z,100431.19
2023-04-15T10:39:45.102Z,100434.25
2023-04-15T10:40:52.006Z,100438.50
2023-04-15T10:42:07.621Z,100427.13
2023-04-15T10:43:27.852Z,100407.81
2023-04-15T10:44:31.644Z,100418.50
2023-04-15T10:45:38.571Z,100417.09
2023-04-15T10:46:43.979Z,100418.34
2023-04-15T10:47:54.668Z,100404.59
2023-04-15T10:48:59.531Z,100403.69
2023-04-15T10:50:03.835Z,100402.78
2023-04-15T10:51:09.567Z,100404.91
2023-04-15T10:52:15.343Z,100397.28
2023-04-15T10:53:29.646Z,100396.16
2023-04-15T10:54:36.456Z,100404.31
2023-04-15T10:55:41.428Z,100420.66
2023-04-15T10:56:46.382Z,100411.59
2023-04-15T10:57:55.101Z,100408.94
2023-04-15T10:59:01.628Z,100412.28
2023-04-15T11:00:15.087Z,100414.75
2023-04-15T11:01:23.411Z,100423.56
2023-04-15T11:02:41.837Z,100421.97
2023-04-15T11:03:51.643Z,100408.75
2023-04-15T11:04:57.688Z,100407.13
2023-04-15T11:06:02.717Z,100404.81
2023-04-15T11:07:07.394Z,100405.47
2023-04-15T11:08:12.898Z,100406.78
2023-04-15T11:09:33.078Z,100393.13
2023-04-15T11:10:55.253Z,100423.59
2023-04-15T11:12:10.673Z,100412.28
2023-04-15T11:13:17.870Z,100377.97
2023-04-15T11:14:22.802Z,100406.50
2023-04-15T11:15:30.904Z,100381.22
2023-04-15T11:16:45.297Z,100394.13
2023-04-15T11:17:49.155Z,100392.44
2023-04-15T11:18:57.727Z,100388.91
2023-04-15T11:20:01.914Z,100385.84
2023-04-15T11:21:08.624Z,100399.41
2023-04-15T11:22:12.755Z,100403.34
2023-04-15T11:23:18.936Z,100406.25
2023-04-15T11:24:28.003Z,100406.06
2023-04-15T11:25:33.381Z,100391.66
2023-04-15T11:26:40.639Z,100403.09
2023-04-15T11:27:44.528Z,100403.03
2023-04-15T11:28:49.441Z,100417.59
2023-04-15T11:29:53.480Z,100381.50
2023-04-15T11:30:59.444Z,100408.41
2023-04-15T11:32:08.597Z,100405.78
2023-04-15T11:33:14.065Z,100411.44
2023-04-15T11:34:24.867Z,100390.03
2023-04-15T11:35:29.077Z,100372.63
2023-04-15T11:36:33.927Z,100388.28
2023-04-15T11:37:37.761Z,100371.81
2023-04-15T11:38:45.493Z,100384.81
2023-04-15T11:39:51.205Z,100368.72
2023-04-15T11:40:56.508Z,100376.81
2023-04-15T11:42:01.714Z,100388.91
2023-04-15T11:43:07.986Z,100384.09
2023-04-15T11:44:18.522Z,100348.13
2023-04-15T11:45:22.245Z,100386.66
2023-04-15T11:46:31.009Z,100373.75
2023-04-15T11:47:36.348Z,100370.44
2023-04-15T11:48:45.287Z,100397.59
2023-04-15T11:49:49.017Z,100382.06
2023-04-15T11:50:57.561Z,100355.84
2023-04-15T11:52:01.501Z,100376.44
2023-04-15T11:53:08.312Z,100368.63
2023-04-15T11:54:21.428Z,100358.00
2023-04-15T11:55:24.708Z,100371.13
2023-04-15T11:56:28.759Z,100357.56
2023-04-15T11:57:35.734Z,100363.00
2023-04-15T11:58:40.899Z,100364.47
2023-04-15T11:59:45.825Z,100365.53
2023-04-15T12:00:52.643Z,100360.94
2023-04-15T12:01:55.328Z,100382.19
2023-04-15T12:03:14.182Z,100356.13
2023-04-15T12:04:25.234Z,100383.78
2023-04-15T12:05:28.973Z,100356.28
2023-04-15T12:06:35.225Z,100371.41
2023-04-15T12:07:59.028Z,100368.81
2023-04-15T12:09:06.101Z,100368.78
2023-04-15T12:10:09.869Z,100318.78
2023-04-15T12:11:12.827Z,100373.09
2023-04-15T12:12:16.491Z,100343.88
2023-04-15T12:13:21.237Z,100368.78
2023-04-15T12:14:28.634Z,100365.91
2023-04-15T12:15:31.738Z,100347.16
2023-04-15T12:16:49.214Z,100364.97
2023-04-15T12:17:56.560Z,100375.59
2023-04-15T12:19:04.797Z,100364.00
2023-04-15T12:20:09.694Z,100365.13
2023-04-15T12:21:12.568Z,100348.94
2023-04-15T12:22:18.688Z,100373.63
2023-04-15T12:23:21.267Z,100366.81
2023-04-15T12:24:24.942Z,100371.00
2023-04-15T12:25:35.537Z,100350.81
2023-04-15T12:26:45.191Z,100376.72
2023-04-15T12:27:53.828Z,100368.03
2023-04-15T12:29:02.391Z,100374.66
2023-04-15T12:30:08.231Z,100363.31
2023-04-15T12:31:11.688Z,100356.69
2023-04-15T12:32:16.500Z,100351.91
2023-04-15T12:33:19.558Z,100354.28
2023-04-15T12:34:29.604Z,100353.38
2023-04-15T12:35:33.416Z,100346.16
2023-04-15T12:36:37.391Z,100336.50
2023-04-15T12:37:41.198Z,100346.34
2023-04-15T12:38:44.137Z,100345.56
2023-04-15T12:39:49.752Z,100355.47
2023-04-15T12:40:52.645Z,100360.38
2023-04-15T12:41:56.750Z,100343.09
2023-04-15T12:42:59.420Z,100361.81
2023-04-15T12:44:04.937Z,100331.53
2023-04-15T12:45:08.434Z,100377.59
2023-04-15T12:46:12.065Z,100369.19
2023-04-15T12:47:16.059Z,100361.28
2023-04-15T12:48:18.961Z,100344.47
2023-04-15T12:49:23.137Z,100380.75
2023-04-15T12:50:25.660Z,100376.50
2023-04-15T12:51:32.135Z,100379.06
2023-04-15T12:52:34.767Z,100366.84
2023-04-15T12:53:38.770Z,100362.00
2023-04-15T12:54:41.574Z,100368.16
2023-04-15T12:55:45.569Z,100368.59
2023-04-15T12:56:51.275Z,100375.16
2023-04-15T12:57:54.138Z,100348.94
2023-04-15T12:58:57.761Z,100351.34
2023-04-15T13:00:01.692Z,100359.28
2023-04-15T13:01:05.641Z,100354.88